createdAt,value
2022-10-11T00:02:02.586Z,3.60
2022-10-11T00:04:29.188Z,5.50
2022-10-11T00:06:55.740Z,4.70
2022-10-11T00:09:23.406Z,3.30
2022-10-11T00:11:49.924Z,4.50
2022-10-11T00:14:16.471Z,5.40
2022-10-11T00:16:44.586Z,6.03
2022-10-11T00:19:11.515Z,4.90
2022-10-11T00:21:38.290Z,5.13
2022-10-11T00:24:05.401Z,4.03
2022-10-11T00:26:31.888Z,4.30
2022-10-11T00:28:58.519Z,4.33
2022-10-11T00:31:25.266Z,5.03
2022-10-11T00:33:53.181Z,4.17
2022-10-11T00:36:19.901Z,2.90
2022-10-11T00:38:46.985Z,4.07
2022-10-11T00:41:14.987Z,6.30
2022-10-11T00:43:41.724Z,5.10
2022-10-11T00:46:27.661Z,4.17
2022-10-11T00:49:00.617Z,4.23
2022-10-11T00:51:39.900Z,3.47
2022-10-11T00:54:07.823Z,6.03
2022-10-11T00:56:37.688Z,5.63
2022-10-11T00:59:11.886Z,5.20
2022-10-11T01:01:38.580Z,5.60
2022-10-11T01:04:05.698Z,5.63
2022-10-11T01:06:33.308Z,6.00
2022-10-11T01:09:00.316Z,4.87
2022-10-11T01:11:29.812Z,4.83
2022-10-11T01:14:30.478Z,6.03
2022-10-11T01:17:02.963Z,6.37
2022-10-11T01:19:44.342Z,6.10
2022-10-11T01:22:25.973Z,4.50
2022-10-11T01:25:04.598Z,5.17
2022-10-11T01:27:42.214Z,4.30
2022-10-11T01:30:18.294Z,6.03
2022-10-11T01:33:21.016Z,4.53
2022-10-11T01:35:56.535Z,4.37
2022-10-11T01:38:35.387Z,4.50
2022-10-11T01:41:25.653Z,4.17
2022-10-11T01:43:57.769Z,5.90
2022-10-11T01:46:24.857Z,5.83
2022-10-11T01:48:54.471Z,4.37
2022-10-11T01:51:37.013Z,5.47
2022-10-11T01:54:56.451Z,4.53
2022-10-11T01:57:46.886Z,5.60
2022-10-11T02:00:20.387Z,5.97
2022-10-11T02:02:50.060Z,5.97
2022-10-11T02:05:35.475Z,6.10
2022-10-11T02:08:30.971Z,5.00
2022-10-11T02:11:10.759Z,5.33
2022-10-11T02:13:46.519Z,5.17
2022-10-11T02:16:17.940Z,4.70
2022-10-11T02:18:49.838Z,3.73
2022-10-11T02:21:20.757Z,3.43
2022-10-11T02:23:52.090Z,4.70
2022-10-11T02:26:21.177Z,4.13
2022-10-11T02:28:50.301Z,5.37
2022-10-11T02:31:18.170Z,8.10
2022-10-11T02:34:00.252Z,6.43
2022-10-11T02:36:37.333Z,5.13
2022-10-11T02:39:14.323Z,3.50
2022-10-11T02:41:43.255Z,4.80
2022-10-11T02:44:15.885Z,3.43
2022-10-11T02:46:45.429Z,6.00
2022-10-11T02:49:13.238Z,6.30
2022-10-11T02:51:40.034Z,4.50
2022-10-11T02:54:07.693Z,5.30
2022-10-11T02:56:34.251Z,4.27
2022-10-11T02:59:00.733Z,4.43
2022-10-11T03:01:27.565Z,5.60
2022-10-11T03:03:54.202Z,4.23
2022-10-11T03:06:22.296Z,6.73
2022-10-11T03:08:48.874Z,3.90
2022-10-11T03:11:15.489Z,3.97
2022-10-11T03:13:41.954Z,3.63
2022-10-11T03:16:08.912Z,5.47
2022-10-11T03:18:35.568Z,7.10
2022-10-11T03:21:02.271Z,6.33
2022-10-11T03:23:28.943Z,4.67
2022-10-11T03:25:55.625Z,4.77
2022-10-11T03:28:22.470Z,5.80
2022-10-11T03:30:50.442Z,13.13
2022-10-11T03:33:17.514Z,6.23
2022-10-11T03:35:45.762Z,5.43
2022-10-11T03:38:18.564Z,4.60
2022-10-11T03:40:45.175Z,5.13
2022-10-11T03:43:11.842Z,5.43
2022-10-11T03:45:39.016Z,4.80
2022-10-11T03:48:05.895Z,5.80
2022-10-11T03:50:32.619Z,3.43
2022-10-11T03:52:59.110Z,6.60
2022-10-11T03:55:25.780Z,3.67
2022-10-11T03:57:52.392Z,5.30
2022-10-11T04:00:18.893Z,5.73
2022-10-11T04:02:45.372Z,4.07
2022-10-11T04:05:12.720Z,6.90
2022-10-11T04:07:40.140Z,5.30
2022-10-11T04:10:07.759Z,7.80
2022-10-11T04:12:34.884Z,4.07
2022-10-11T04:15:01.333Z,4.77
2022-10-11T04:17:27.929Z,3.50
2022-10-11T04:19:54.427Z,4.50
2022-10-11T04:22:20.929Z,5.97
2022-10-11T04:24:47.482Z,3.10
2022-10-11T04:27:14.056Z,3.80
2022-10-11T04:29:40.520Z,4.73
2022-10-11T04:32:07.173Z,3.00
2022-10-11T04:34:33.733Z,4.70
2022-10-11T04:37:00.328Z,3.43
2022-10-11T04:39:26.898Z,4.73
2022-10-11T04:41:53.370Z,6.00
2022-10-11T04:44:19.938Z,4.87
2022-10-11T04:46:46.402Z,5.40
2022-10-11T04:49:15.127Z,4.07
2022-10-11T04:51:41.638Z,4.67
2022-10-11T04:54:08.133Z,3.17
2022-10-11T04:56:34.677Z,5.63
2022-10-11T04:59:01.308Z,3.20
2022-10-11T05:01:28.096Z,4.40
2022-10-11T05:03:54.702Z,9.20
2022-10-11T05:06:21.326Z,5.83
2022-10-11T05:08:48.293Z,4.97
2022-10-11T05:11:16.391Z,5.50
2022-10-11T05:13:43.953Z,5.80
2022-10-11T05:16:11.914Z,5.50
2022-10-11T05:18:39.647Z,5.03
2022-10-11T05:21:14.907Z,4.70
2022-10-11T05:23:41.817Z,4.37
2022-10-11T05:26:15.655Z,4.37
2022-10-11T05:28:42.592Z,5.63
2022-10-11T05:31:09.318Z,5.10
2022-10-11T05:33:36.138Z,6.00
2022-10-11T05:36:03.506Z,4.17
2022-10-11T05:38:30.302Z,5.27
2022-10-11T05:41:00.313Z,5.70
2022-10-11T05:43:27.614Z,6.93
2022-10-11T05:45:54.685Z,3.73
2022-10-11T05:48:21.884Z,6.57
2022-10-11T05:50:48.487Z,5.07
2022-10-11T05:53:14.962Z,3.47
2022-10-11T05:55:43.347Z,3.27
2022-10-11T05:58:14.913Z,8.13
2022-10-11T06:00:41.405Z,3.60
2022-10-11T06:03:11.024Z,9.80
2022-10-11T06:05:37.612Z,4.73
2022-10-11T06:08:06.684Z,5.27
2022-10-11T06:10:33.348Z,4.03
2022-10-11T06:12:59.832Z,3.57
2022-10-11T06:15:26.407Z,4.33
2022-10-11T06:17:53.213Z,5.77
2022-10-11T06:20:19.823Z,4.83
2022-10-11T06:22:46.319Z,4.87
2022-10-11T06:25:12.836Z,5.90
2022-10-11T06:27:39.256Z,4.70
2022-10-11T06:30:07.430Z,6.07
2022-10-11T06:32:33.973Z,3.77
2022-10-11T06:35:00.614Z,5.50
2022-10-11T06:37:27.236Z,5.00
2022-10-11T06:39:53.839Z,4.57
2022-10-11T06:42:20.338Z,4.67
2022-10-11T06:44:46.997Z,4.40
2022-10-11T06:47:13.656Z,4.57
2022-10-11T06:49:40.401Z,3.80
2022-10-11T06:52:07.036Z,6.93
2022-10-11T06:54:33.565Z,8.77
2022-10-11T06:57:00.075Z,3.20
2022-10-11T06:59:26.778Z,7.23
2022-10-11T07:01:53.320Z,9.50
2022-10-11T07:04:19.841Z,13.93
2022-10-11T07:06:46.265Z,5.23
2022-10-11T07:09:12.796Z,4.47
2022-10-11T07:11:39.228Z,18.47
2022-10-11T07:14:07.980Z,21.50
2022-10-11T07:16:37.885Z,15.00
2022-10-11T07:19:06.550Z,19.17
2022-10-11T07:21:34.602Z,17.07
2022-10-11T07:24:01.868Z,18.77
2022-10-11T07:26:33.831Z,14.60
2022-10-11T07:29:05.205Z,20.33
2022-10-11T07:31:31.744Z,34.90
2022-10-11T07:33:58.219Z,34.13
2022-10-11T07:36:25.602Z,30.87
2022-10-11T07:38:52.127Z,28.53
2022-10-11T07:41:19.335Z,29.10
2022-10-11T07:43:47.901Z,23.40
2022-10-11T07:46:15.229Z,31.03
2022-10-11T07:48:42.295Z,30.30
2022-10-11T07:51:11.754Z,28.83
2022-10-11T07:53:40.230Z,33.10
2022-10-11T07:56:08.393Z,30.23
2022-10-11T07:58:35.610Z,31.47
2022-10-11T08:01:02.179Z,31.50
2022-10-11T08:03:29.658Z,36.60
2022-10-11T08:06:00.608Z,28.23
2022-10-11T08:08:27.459Z,28.23
2022-10-11T08:10:54.165Z,36.57
2022-10-11T08:13:20.657Z,40.60
2022-10-11T08:15:47.071Z,31.13
2022-10-11T08:18:13.556Z,37.40
2022-10-11T08:20:40.449Z,26.43
2022-10-11T08:23:07.238Z,32.37
2022-10-11T08:25:39.387Z,34.13
2022-10-11T08:28:06.849Z,34.00
2022-10-11T08:30:35.799Z,33.77
2022-10-11T08:33:07.564Z,28.90
2022-10-11T08:35:36.278Z,31.97
2022-10-11T08:38:03.306Z,35.10
2022-10-11T08:40:34.987Z,28.47
2022-10-11T08:43:08.185Z,30.40
2022-10-11T08:45:50.941Z,31.93
2022-10-11T08:48:20.790Z,27.20
2022-10-11T08:50:51.086Z,25.33
2022-10-11T08:53:42.538Z,23.00
2022-10-11T08:56:13.223Z,28.90
2022-10-11T08:58:55.893Z,27.20
2022-10-11T09:01:25.944Z,24.53
2022-10-11T09:03:53.071Z,16.00
2022-10-11T09:06:31.650Z,19.07
2022-10-11T09:09:18.173Z,17.70
2022-10-11T09:12:02.787Z,10.87
2022-10-11T09:14:39.207Z,11.60
2022-10-11T09:17:15.588Z,14.70
2022-10-11T09:19:52.160Z,14.73
2022-10-11T09:22:43.327Z,11.27
2022-10-11T09:25:24.642Z,18.17
2022-10-11T09:28:38.894Z,13.53
2022-10-11T09:31:09.919Z,15.00
2022-10-11T09:33:40.292Z,17.20
2022-10-11T09:36:23.031Z,13.47
2022-10-11T09:39:07.050Z,12.23
2022-10-11T09:41:42.797Z,14.57
2022-10-11T09:44:21.565Z,11.98
2022-10-11T09:46:49.666Z,11.50
2022-10-11T09:49:19.248Z,13.25
2022-10-11T09:51:52.469Z,17.98
2022-10-11T09:54:22.295Z,13.48
2022-10-11T09:56:48.780Z,14.30
2022-10-11T09:59:29.457Z,14.32
2022-10-11T10:02:14.681Z,13.40
2022-10-11T10:05:21.749Z,18.42
2022-10-11T10:08:08.393Z,14.10
2022-10-11T10:10:46.182Z,10.80
2022-10-11T10:13:43.750Z,16.08
2022-10-11T10:16:28.764Z,10.57
2022-10-11T10:18:58.384Z,11.30
2022-10-11T10:21:37.135Z,12.70
2022-10-11T10:24:40.754Z,9.73
2022-10-11T10:27:14.829Z,9.82
2022-10-11T10:29:41.751Z,14.55
2022-10-11T10:32:21.043Z,11.82
2022-10-11T10:34:50.435Z,12.90
2022-10-11T10:37:43.043Z,9.68
2022-10-11T10:40:16.783Z,14.07
2022-10-11T10:42:43.248Z,11.60
2022-10-11T10:45:21.493Z,10.85
2022-10-11T10:47:54.501Z,11.57
2022-10-11T10:50:42.060Z,11.20
2022-10-11T10:53:42.101Z,15.15
2022-10-11T10:56:19.817Z,8.57
2022-10-11T10:59:24.023Z,12.80
2022-10-11T11:02:06.737Z,12.05
2022-10-11T11:04:50.821Z,9.88
2022-10-11T11:07:36.938Z,13.57
2022-10-11T11:10:25.373Z,9.38
2022-10-11T11:13:10.498Z,10.13
2022-10-11T11:15:47.880Z,8.63
2022-10-11T11:18:25.864Z,12.93
2022-10-11T11:21:01.427Z,12.77
2022-10-11T11:23:52.636Z,9.68
2022-10-11T11:26:44.321Z,14.48
2022-10-11T11:29:34.330Z,10.07
2022-10-11T11:32:25.747Z,14.43
2022-10-11T11:35:01.193Z,9.48
2022-10-11T11:37:36.288Z,9.55
2022-10-11T11:40:27.152Z,11.50
2022-10-11T11:42:59.511Z,9.23
2022-10-11T11:45:45.155Z,8.25
2022-10-11T11:48:25.755Z,8.48
2022-10-11T11:51:17.757Z,12.93
2022-10-11T11:53:53.359Z,10.05
2022-10-11T11:56:44.736Z,10.85
2022-10-11T11:59:42.128Z,10.07
2022-10-11T12:02:43.694Z,9.55
2022-10-11T12:05:13.582Z,7.20
2022-10-11T12:08:06.605Z,9.77
2022-10-11T12:10:37.744Z,9.65
2022-10-11T12:13:17.216Z,5.93
2022-10-11T12:15:59.266Z,5.85
2022-10-11T12:18:27.570Z,9.90
2022-10-11T12:21:18.600Z,11.40
2022-10-11T12:23:47.740Z,8.88
2022-10-11T12:26:29.686Z,9.90
2022-10-11T12:29:20.757Z,10.88
2022-10-11T12:31:51.610Z,10.90
2022-10-11T12:37:19.474Z,10.25
2022-10-11T12:40:00.093Z,7.40
2022-10-11T12:42:36.967Z,7.35
2022-10-11T12:45:13.169Z,8.63
2022-10-11T12:48:01.515Z,7.60
2022-10-11T12:50:37.013Z,7.18
2022-10-11T12:53:33.124Z,7.55
2022-10-11T12:56:26.359Z,9.40
2022-10-11T12:59:02.998Z,7.35
2022-10-11T13:01:36.853Z,10.10
2022-10-11T13:04:09.853Z,3.78
2022-10-11T13:06:45.307Z,9.55
2022-10-11T13:09:18.075Z,9.18
2022-10-11T13:12:13.677Z,8.50
2022-10-11T13:14:48.331Z,6.80
2022-10-11T13:17:34.471Z,7.03
2022-10-11T13:20:17.325Z,7.65
2022-10-11T13:22:47.470Z,10.55
2022-10-11T13:25:29.872Z,8.57
2022-10-11T13:27:59.531Z,4.97
2022-10-11T13:30:32.039Z,6.07
2022-10-11T13:33:00.067Z,8.98
2022-10-11T13:35:33.134Z,9.82
2022-10-11T13:38:00.430Z,5.85
2022-10-11T13:40:28.130Z,8.10
2022-10-11T13:42:55.252Z,7.53
2022-10-11T13:45:24.375Z,7.97
2022-10-11T13:47:53.110Z,8.73
2022-10-11T13:50:26.471Z,7.78
2022-10-11T13:52:56.320Z,10.18
2022-10-11T13:55:29.226Z,5.35
2022-10-11T13:57:57.687Z,5.13
2022-10-11T14:00:34.942Z,8.35
2022-10-11T14:03:17.143Z,10.07
2022-10-11T14:05:56.251Z,9.13
2022-10-11T14:08:34.351Z,10.43
2022-10-11T14:11:06.068Z,8.23
2022-10-11T14:13:50.039Z,7.78
2022-10-11T14:16:16.431Z,7.43
2022-10-11T14:18:51.191Z,8.57
2022-10-11T14:21:21.107Z,4.53
2022-10-11T14:23:51.015Z,7.85
2022-10-11T14:26:19.188Z,7.30
2022-10-11T14:28:48.822Z,6.43
2022-10-11T14:31:15.487Z,5.22
2022-10-11T14:33:42.125Z,7.90
2022-10-11T14:36:08.931Z,9.20
2022-10-11T14:38:35.596Z,4.15
2022-10-11T14:41:02.191Z,7.00
2022-10-11T14:43:28.631Z,5.00
2022-10-11T14:45:55.086Z,7.15
2022-10-11T14:48:43.164Z,4.60
2022-10-11T14:51:13.514Z,4.72
2022-10-11T14:53:46.117Z,7.03
2022-10-11T14:56:17.736Z,6.00
2022-10-11T14:58:47.354Z,11.88
2022-10-11T15:01:14.636Z,5.93
2022-10-11T15:03:41.515Z,3.83
2022-10-11T15:06:16.493Z,5.07
2022-10-11T15:08:42.987Z,4.07
2022-10-11T15:11:16.647Z,8.40
2022-10-11T15:13:43.132Z,4.57
2022-10-11T15:16:16.239Z,9.90
2022-10-11T15:18:44.090Z,6.60
2022-10-11T15:21:14.540Z,6.80
2022-10-11T15:23:40.989Z,8.50
2022-10-11T15:26:09.695Z,5.45
2022-10-11T15:28:36.292Z,9.68
2022-10-11T15:31:02.955Z,8.20
2022-10-11T15:33:29.443Z,8.38
2022-10-11T15:35:55.961Z,9.27
2022-10-11T15:38:24.655Z,9.80
2022-10-11T15:40:52.438Z,7.45
2022-10-11T15:43:24.279Z,8.48
2022-10-11T15:45:51.469Z,9.82
2022-10-11T15:48:21.756Z,14.82
2022-10-11T15:50:49.981Z,10.10
2022-10-11T15:53:21.662Z,11.23
2022-10-11T15:55:50.567Z,5.28
2022-10-11T15:58:16.957Z,8.95
2022-10-11T16:00:45.756Z,7.50
2022-10-11T16:03:14.645Z,7.75
2022-10-11T16:05:42.529Z,9.15
2022-10-11T16:08:10.038Z,5.80
2022-10-11T16:10:37.511Z,8.80
2022-10-11T16:13:04.088Z,8.75
2022-10-11T16:15:31.146Z,7.75
2022-10-11T16:17:57.802Z,8.63
2022-10-11T16:20:25.826Z,6.63
2022-10-11T16:22:54.037Z,5.65
2022-10-11T16:25:24.671Z,9.13
2022-10-11T16:27:51.685Z,8.20
2022-10-11T16:30:19.627Z,9.15
2022-10-11T16:32:46.404Z,8.05
2022-10-11T16:35:14.464Z,7.93
2022-10-11T16:37:41.438Z,8.45
2022-10-11T16:40:09.643Z,9.73
2022-10-11T16:42:39.181Z,12.15
2022-10-11T16:45:06.781Z,9.48
2022-10-11T16:47:33.217Z,9.98
2022-10-11T16:50:00.201Z,7.38
2022-10-11T16:52:26.849Z,7.07
2022-10-11T16:54:53.305Z,9.15
2022-10-11T16:57:20.141Z,8.75
2022-10-11T16:59:46.899Z,9.27
2022-10-11T17:02:19.508Z,12.60
2022-10-11T17:04:46.575Z,8.60
2022-10-11T17:07:13.660Z,8.88
2022-10-11T17:09:44.009Z,8.52
2022-10-11T17:12:13.135Z,6.97
2022-10-11T17:14:40.709Z,9.02
2022-10-11T17:17:08.558Z,7.85
2022-10-11T17:19:44.873Z,6.43
2022-10-11T17:22:17.440Z,8.82
2022-10-11T17:24:44.243Z,4.18
2022-10-11T17:27:11.338Z,8.35
2022-10-11T17:29:38.302Z,13.05
2022-10-11T17:32:05.262Z,8.30
2022-10-11T17:34:31.992Z,9.32
2022-10-11T17:36:58.544Z,6.32
2022-10-11T17:39:25.847Z,8.27
2022-10-11T17:41:52.956Z,7.65
2022-10-11T17:44:20.351Z,10.85
2022-10-11T17:46:47.693Z,8.70
2022-10-11T17:49:17.117Z,6.60
2022-10-11T17:51:44.256Z,6.57
2022-10-11T17:54:13.049Z,7.00
2022-10-11T17:56:42.970Z,8.85
2022-10-11T17:59:16.024Z,9.27
2022-10-11T18:01:45.063Z,7.53
2022-10-11T18:04:16.604Z,7.72
2022-10-11T18:06:56.743Z,6.40
2022-10-11T18:09:25.133Z,4.63
2022-10-11T18:11:51.955Z,4.95
2022-10-11T18:14:19.098Z,8.80
2022-10-11T18:16:45.810Z,6.22
2022-10-11T18:19:13.697Z,8.43
2022-10-11T18:21:41.111Z,8.98
2022-10-11T18:24:12.570Z,7.60
2022-10-11T18:26:39.957Z,10.75
2022-10-11T18:29:06.904Z,11.98
2022-10-11T18:31:35.445Z,8.75
2022-10-11T18:34:03.595Z,16.77
2022-10-11T18:36:31.119Z,14.65
2022-10-11T18:39:01.109Z,16.60
2022-10-11T18:41:31.834Z,10.27
2022-10-11T18:44:02.222Z,15.40
2022-10-11T18:46:29.674Z,8.77
2022-10-11T18:48:57.372Z,7.47
2022-10-11T18:51:32.702Z,8.35
2022-10-11T18:54:00.013Z,10.68
2022-10-11T18:56:29.095Z,10.57
2022-10-11T18:58:57.307Z,9.73
2022-10-11T19:01:33.358Z,10.75
2022-10-11T19:04:01.736Z,9.65
2022-10-11T19:06:34.468Z,12.20
2022-10-11T19:09:06.522Z,9.15
2022-10-11T19:11:33.321Z,10.05
2022-10-11T19:14:09.806Z,9.90
2022-10-11T19:16:39.813Z,8.60
2022-10-11T19:19:07.580Z,12.82
2022-10-11T19:21:34.137Z,7.53
2022-10-11T19:24:00.596Z,8.95
2022-10-11T19:26:31.419Z,12.75
2022-10-11T19:29:04.038Z,12.65
2022-10-11T19:31:31.494Z,11.80
2022-10-11T19:33:58.628Z,13.55
2022-10-11T19:36:26.091Z,10.75
2022-10-11T19:38:56.865Z,11.18
2022-10-11T19:41:26.202Z,12.02
2022-10-11T19:43:53.707Z,13.75
2022-10-11T19:46:44.333Z,13.10
2022-10-11T19:49:08.898Z,9.52
2022-10-11T19:51:37.377Z,8.15
2022-10-11T19:54:06.498Z,15.83
2022-10-11T19:56:34.099Z,10.05
2022-10-11T19:59:01.943Z,12.43
2022-10-11T20:01:30.828Z,10.93
2022-10-11T20:04:05.920Z,9.40
2022-10-11T20:06:38.843Z,8.90
2022-10-11T20:11:53.728Z,11.17
2022-10-11T20:14:20.536Z,12.63
2022-10-11T20:16:50.136Z,10.33
2022-10-11T20:19:17.524Z,8.77
2022-10-11T20:21:45.237Z,12.27
2022-10-11T20:24:12.250Z,11.47
2022-10-11T20:26:39.358Z,9.70
2022-10-11T20:29:06.058Z,10.70
2022-10-11T20:31:35.203Z,14.30
2022-10-11T20:34:04.097Z,11.10
2022-10-11T20:36:31.794Z,13.93
2022-10-11T20:38:59.398Z,12.40
2022-10-11T20:41:34.408Z,10.63
2022-10-11T20:44:02.599Z,8.80
2022-10-11T20:46:32.346Z,12.10
2022-10-11T20:49:02.346Z,12.90
2022-10-11T20:51:30.750Z,12.60
2022-10-11T20:53:58.154Z,14.17
2022-10-11T20:56:24.947Z,10.87
2022-10-11T20:58:53.306Z,10.53
2022-10-11T21:01:23.003Z,12.73
2022-10-11T21:03:50.506Z,11.67
2022-10-11T21:06:17.010Z,10.63
2022-10-11T21:08:43.525Z,7.13
2022-10-11T21:11:10.594Z,9.83
2022-10-11T21:13:37.706Z,14.23
2022-10-11T21:16:06.632Z,10.43
2022-10-11T21:18:33.071Z,8.37
2022-10-11T21:21:08.378Z,12.77
2022-10-11T21:23:35.236Z,11.57
2022-10-11T21:26:03.463Z,9.33
2022-10-11T21:28:30.182Z,13.60
2022-10-11T21:31:06.095Z,11.50
2022-10-11T21:33:33.759Z,10.53
2022-10-11T21:36:13.402Z,10.40
2022-10-11T21:38:40.144Z,12.90
2022-10-11T21:41:18.111Z,11.20
2022-10-11T21:43:44.588Z,7.10
2022-10-11T21:46:12.918Z,9.23
2022-10-11T21:48:40.143Z,7.70
2022-10-11T21:51:07.112Z,8.90
2022-10-11T21:53:34.140Z,8.87
2022-10-11T21:56:01.267Z,7.60
2022-10-11T21:58:28.113Z,9.30
2022-10-11T22:00:55.007Z,9.63
2022-10-11T22:03:21.860Z,7.17
2022-10-11T22:05:48.570Z,5.70
2022-10-11T22:08:15.450Z,9.00
2022-10-11T22:10:53.314Z,6.70
2022-10-11T22:13:19.798Z,7.40
2022-10-11T22:15:46.298Z,11.73
2022-10-11T22:18:12.923Z,8.03
2022-10-11T22:20:39.423Z,7.40
2022-10-11T22:23:05.960Z,8.97
2022-10-11T22:25:37.145Z,7.33
2022-10-11T22:28:04.585Z,10.37
2022-10-11T22:30:31.677Z,6.03
2022-10-11T22:32:58.288Z,9.53
2022-10-11T22:35:24.751Z,6.60
2022-10-11T22:37:51.858Z,9.07
2022-10-11T22:40:19.315Z,7.77
2022-10-11T22:42:46.172Z,11.33
2022-10-11T22:45:12.651Z,9.77
2022-10-11T22:47:40.446Z,7.67
2022-10-11T22:50:07.069Z,7.53
2022-10-11T22:52:33.607Z,9.13
2022-10-11T22:55:00.023Z,6.40
2022-10-11T22:57:26.427Z,14.33
2022-10-11T22:59:52.865Z,11.10
2022-10-11T23:02:19.459Z,6.23
2022-10-11T23:04:45.915Z,6.80
2022-10-11T23:07:12.502Z,10.10
2022-10-11T23:09:38.953Z,8.13
2022-10-11T23:12:05.699Z,8.03
2022-10-11T23:14:32.143Z,10.57
2022-10-11T23:16:58.546Z,10.17
2022-10-11T23:19:25.026Z,7.47
2022-10-11T23:21:51.471Z,10.03
2022-10-11T23:24:17.924Z,11.17
2022-10-11T23:26:44.370Z,8.10
2022-10-11T23:29:10.865Z,13.40
2022-10-11T23:31:37.374Z,8.20
2022-10-11T23:34:03.989Z,11.07
2022-10-11T23:36:30.560Z,8.57
2022-10-11T23:38:58.429Z,6.37
2022-10-11T23:41:27.014Z,8.23
2022-10-11T23:43:53.648Z,6.87
2022-10-11T23:46:20.228Z,5.97
2022-10-11T23:48:46.708Z,8.30
2022-10-11T23:51:14.114Z,6.17
2022-10-11T23:53:40.717Z,6.27
2022-10-11T23:56:07.904Z,7.87
2022-10-11T23:58:34.411Z,6.90
